sensor_id;sensor_type;location;lat;lon;timestamp;P1;P2;P0
55518;PMS5003;41724;51.176;-0.708;2023-09-19T00:00:56;5;4;
55518;PMS5003;41724;51.176;-0.708;2023-09-19T00:03:23;3;2;
55518;PMS5003;41724;51.176;-0.708;2023-09-19T00:05:50;2;2;
55518;PMS5003;41724;51.176;-0.708;2023-09-19T00:08:17;3;3;
55518;PMS5003;41724;51.176;-0.708;2023-09-19T00:10:44;6;5;
55518;PMS5003;41724;51.176;-0.708;2023-09-19T00:13:11;4;2;
55518;PMS5003;41724;51.176;-0.708;2023-09-19T00:15:39;3;3;
55518;PMS5003;41724;51.176;-0.708;2023-09-19T00:18:08;4;4;
55518;PMS5003;41724;51.176;-0.708;2023-09-19T00:20:35;4;2;
55518;PMS5003;41724;51.176;-0.708;2023-09-19T00:23:03;3;2;
55518;PMS5003;41724;51.176;-0.708;2023-09-19T00:25:30;4;2;
55518;PMS5003;41724;51.176;-0.708;2023-09-19T00:27:57;4;3;
55518;PMS5003;41724;51.176;-0.708;2023-09-19T00:30:24;5;3;
55518;PMS5003;41724;51.176;-0.708;2023-09-19T00:32:51;4;3;
55518;PMS5003;41724;51.176;-0.708;2023-09-19T00:35:18;6;4;
55518;PMS5003;41724;51.176;-0.708;2023-09-19T00:37:45;2;2;
55518;PMS5003;41724;51.176;-0.708;2023-09-19T00:40:11;3;2;
55518;PMS5003;41724;51.176;-0.708;2023-09-19T00:42:38;2;2;
55518;PMS5003;41724;51.176;-0.708;2023-09-19T00:45:06;2;2;
55518;PMS5003;41724;51.176;-0.708;2023-09-19T00:47:33;3;3;
55518;PMS5003;41724;51.176;-0.708;2023-09-19T00:50:00;2;1;
55518;PMS5003;41724;51.176;-0.708;2023-09-19T00:52:29;1;1;
55518;PMS5003;41724;51.176;-0.708;2023-09-19T00:54:56;7;5;
55518;PMS5003;41724;51.176;-0.708;2023-09-19T00:57:24;3;3;
55518;PMS5003;41724;51.176;-0.708;2023-09-19T00:59:51;3;1;
55518;PMS5003;41724;51.176;-0.708;2023-09-19T01:02:21;5;3;
55518;PMS5003;41724;51.176;-0.708;2023-09-19T01:04:48;3;2;
55518;PMS5003;41724;51.176;-0.708;2023-09-19T01:07:15;4;3;
55518;PMS5003;41724;51.176;-0.708;2023-09-19T01:09:42;3;3;
55518;PMS5003;41724;51.176;-0.708;2023-09-19T01:12:09;1;1;
55518;PMS5003;41724;51.176;-0.708;2023-09-19T01:14:44;2;2;
55518;PMS5003;41724;51.176;-0.708;2023-09-19T01:17:23;2;2;
55518;PMS5003;41724;51.176;-0.708;2023-09-19T01:20:24;4;1;
55518;PMS5003;41724;51.176;-0.708;2023-09-19T01:23:02;2;2;
55518;PMS5003;41724;51.176;-0.708;2023-09-19T01:26:11;2;1;
55518;PMS5003;41724;51.176;-0.708;2023-09-19T01:28:52;3;3;
55518;PMS5003;41724;51.176;-0.708;2023-09-19T01:31:21;4;3;
55518;PMS5003;41724;51.176;-0.708;2023-09-19T01:33:54;3;1;
55518;PMS5003;41724;51.176;-0.708;2023-09-19T01:36:23;2;2;
55518;PMS5003;41724;51.176;-0.708;2023-09-19T01:38:50;6;4;
55518;PMS5003;41724;51.176;-0.708;2023-09-19T01:41:20;3;3;
55518;PMS5003;41724;51.176;-0.708;2023-09-19T01:43:52;5;5;
55518;PMS5003;41724;51.176;-0.708;2023-09-19T01:46:21;2;2;
55518;PMS5003;41724;51.176;-0.708;2023-09-19T01:48:56;4;3;
55518;PMS5003;41724;51.176;-0.708;2023-09-19T01:51:33;2;2;
55518;PMS5003;41724;51.176;-0.708;2023-09-19T01:54:08;4;3;
55518;PMS5003;41724;51.176;-0.708;2023-09-19T01:56:40;4;3;
55518;PMS5003;41724;51.176;-0.708;2023-09-19T01:59:16;6;3;
55518;PMS5003;41724;51.176;-0.708;2023-09-19T02:01:47;4;4;
55518;PMS5003;41724;51.176;-0.708;2023-09-19T02:04:16;2;2;
55518;PMS5003;41724;51.176;-0.708;2023-09-19T02:06:43;2;1;
55518;PMS5003;41724;51.176;-0.708;2023-09-19T02:09:10;4;4;
55518;PMS5003;41724;51.176;-0.708;2023-09-19T02:11:38;1;1;
55518;PMS5003;41724;51.176;-0.708;2023-09-19T02:14:04;3;2;
55518;PMS5003;41724;51.176;-0.708;2023-09-19T02:16:32;4;3;
55518;PMS5003;41724;51.176;-0.708;2023-09-19T02:18:59;5;4;
55518;PMS5003;41724;51.176;-0.708;2023-09-19T02:21:26;5;3;
55518;PMS5003;41724;51.176;-0.708;2023-09-19T02:23:52;3;3;
55518;PMS5003;41724;51.176;-0.708;2023-09-19T02:26:19;4;3;
55518;PMS5003;41724;51.176;-0.708;2023-09-19T02:28:46;3;3;
55518;PMS5003;41724;51.176;-0.708;2023-09-19T02:31:13;5;3;
55518;PMS5003;41724;51.176;-0.708;2023-09-19T02:33:40;3;3;
55518;PMS5003;41724;51.176;-0.708;2023-09-19T02:36:08;2;1;
55518;PMS5003;41724;51.176;-0.708;2023-09-19T02:38:35;3;2;
55518;PMS5003;41724;51.176;-0.708;2023-09-19T02:41:02;4;3;
55518;PMS5003;41724;51.176;-0.708;2023-09-19T02:43:29;5;4;
55518;PMS5003;41724;51.176;-0.708;2023-09-19T02:45:56;4;3;
55518;PMS5003;41724;51.176;-0.708;2023-09-19T02:48:23;3;3;
55518;PMS5003;41724;51.176;-0.708;2023-09-19T02:50:50;4;3;
55518;PMS5003;41724;51.176;-0.708;2023-09-19T02:53:18;3;3;
55518;PMS5003;41724;51.176;-0.708;2023-09-19T02:55:46;4;4;
55518;PMS5003;41724;51.176;-0.708;2023-09-19T02:58:13;3;2;
55518;PMS5003;41724;51.176;-0.708;2023-09-19T03:00:40;2;2;
55518;PMS5003;41724;51.176;-0.708;2023-09-19T03:03:08;4;4;
55518;PMS5003;41724;51.176;-0.708;2023-09-19T03:05:35;4;3;
55518;PMS5003;41724;51.176;-0.708;2023-09-19T03:08:02;2;1;
55518;PMS5003;41724;51.176;-0.708;2023-09-19T03:10:30;4;3;
55518;PMS5003;41724;51.176;-0.708;2023-09-19T03:12:57;1;0;
55518;PMS5003;41724;51.176;-0.708;2023-09-19T03:15:25;3;1;
55518;PMS5003;41724;51.176;-0.708;2023-09-19T03:17:52;7;3;
55518;PMS5003;41724;51.176;-0.708;2023-09-19T03:20:19;2;2;
55518;PMS5003;41724;51.176;-0.708;2023-09-19T03:22:45;4;3;
55518;PMS5003;41724;51.176;-0.708;2023-09-19T03:25:13;4;3;
55518;PMS5003;41724;51.176;-0.708;2023-09-19T03:27:40;4;2;
55518;PMS5003;41724;51.176;-0.708;2023-09-19T03:30:07;5;4;
55518;PMS5003;41724;51.176;-0.708;2023-09-19T03:32:35;3;2;
55518;PMS5003;41724;51.176;-0.708;2023-09-19T03:35:01;4;3;
55518;PMS5003;41724;51.176;-0.708;2023-09-19T03:37:29;2;2;
55518;PMS5003;41724;51.176;-0.708;2023-09-19T03:39:56;2;2;
55518;PMS5003;41724;51.176;-0.708;2023-09-19T03:42:23;3;2;
55518;PMS5003;41724;51.176;-0.708;2023-09-19T03:44:50;2;1;
55518;PMS5003;41724;51.176;-0.708;2023-09-19T03:47:17;3;2;
55518;PMS5003;41724;51.176;-0.708;2023-09-19T03:49:44;3;2;
55518;PMS5003;41724;51.176;-0.708;2023-09-19T03:52:11;3;2;
55518;PMS5003;41724;51.176;-0.708;2023-09-19T03:54:38;4;2;
55518;PMS5003;41724;51.176;-0.708;2023-09-19T03:57:05;3;3;
55518;PMS5003;41724;51.176;-0.708;2023-09-19T03:59:32;2;2;
55518;PMS5003;41724;51.176;-0.708;2023-09-19T04:01:59;4;3;
55518;PMS5003;41724;51.176;-0.708;2023-09-19T04:04:26;3;1;
55518;PMS5003;41724;51.176;-0.708;2023-09-19T04:06:53;4;2;
55518;PMS5003;41724;51.176;-0.708;2023-09-19T04:09:20;7;3;
55518;PMS5003;41724;51.176;-0.708;2023-09-19T04:11:47;2;1;
55518;PMS5003;41724;51.176;-0.708;2023-09-19T04:14:14;4;2;
55518;PMS5003;41724;51.176;-0.708;2023-09-19T04:16:41;2;2;
55518;PMS5003;41724;51.176;-0.708;2023-09-19T04:19:08;1;1;
55518;PMS5003;41724;51.176;-0.708;2023-09-19T04:21:35;4;3;
55518;PMS5003;41724;51.176;-0.708;2023-09-19T04:24:02;3;2;
55518;PMS5003;41724;51.176;-0.708;2023-09-19T04:26:29;2;1;
55518;PMS5003;41724;51.176;-0.708;2023-09-19T04:28:56;0;0;
55518;PMS5003;41724;51.176;-0.708;2023-09-19T04:31:23;5;5;
55518;PMS5003;41724;51.176;-0.708;2023-09-19T04:33:50;4;2;
55518;PMS5003;41724;51.176;-0.708;2023-09-19T04:36:17;3;2;
55518;PMS5003;41724;51.176;-0.708;2023-09-19T04:38:44;5;5;
55518;PMS5003;41724;51.176;-0.708;2023-09-19T04:41:11;7;4;
55518;PMS5003;41724;51.176;-0.708;2023-09-19T04:43:38;8;7;
55518;PMS5003;41724;51.176;-0.708;2023-09-19T04:46:05;8;7;
55518;PMS5003;41724;51.176;-0.708;2023-09-19T04:48:32;8;6;
55518;PMS5003;41724;51.176;-0.708;2023-09-19T04:51:00;7;5;
55518;PMS5003;41724;51.176;-0.708;2023-09-19T04:53:27;7;5;
55518;PMS5003;41724;51.176;-0.708;2023-09-19T04:55:54;5;5;
55518;PMS5003;41724;51.176;-0.708;2023-09-19T04:58:21;7;5;
55518;PMS5003;41724;51.176;-0.708;2023-09-19T05:00:49;4;2;
55518;PMS5003;41724;51.176;-0.708;2023-09-19T05:03:16;3;3;
55518;PMS5003;41724;51.176;-0.708;2023-09-19T05:05:43;2;2;
55518;PMS5003;41724;51.176;-0.708;2023-09-19T05:08:10;4;3;
55518;PMS5003;41724;51.176;-0.708;2023-09-19T05:10:37;3;2;
55518;PMS5003;41724;51.176;-0.708;2023-09-19T05:13:04;2;2;
55518;PMS5003;41724;51.176;-0.708;2023-09-19T05:15:31;2;2;
55518;PMS5003;41724;51.176;-0.708;2023-09-19T05:17:58;2;1;
55518;PMS5003;41724;51.176;-0.708;2023-09-19T05:20:25;2;2;
55518;PMS5003;41724;51.176;-0.708;2023-09-19T05:22:57;4;4;
55518;PMS5003;41724;51.176;-0.708;2023-09-19T05:25:25;2;2;
55518;PMS5003;41724;51.176;-0.708;2023-09-19T05:27:52;3;2;
55518;PMS5003;41724;51.176;-0.708;2023-09-19T05:30:19;1;1;
55518;PMS5003;41724;51.176;-0.708;2023-09-19T05:32:46;1;0;
55518;PMS5003;41724;51.176;-0.708;2023-09-19T05:35:13;1;1;
55518;PMS5003;41724;51.176;-0.708;2023-09-19T05:37:40;2;2;
55518;PMS5003;41724;51.176;-0.708;2023-09-19T05:40:08;2;2;
55518;PMS5003;41724;51.176;-0.708;2023-09-19T05:42:36;0;0;
55518;PMS5003;41724;51.176;-0.708;2023-09-19T05:45:04;1;1;
55518;PMS5003;41724;51.176;-0.708;2023-09-19T05:47:32;3;3;
55518;PMS5003;41724;51.176;-0.708;2023-09-19T05:49:59;5;2;
55518;PMS5003;41724;51.176;-0.708;2023-09-19T05:52:26;2;2;
55518;PMS5003;41724;51.176;-0.708;2023-09-19T05:54:53;3;3;
55518;PMS5003;41724;51.176;-0.708;2023-09-19T05:57:20;3;2;
55518;PMS5003;41724;51.176;-0.708;2023-09-19T05:59:47;3;3;
55518;PMS5003;41724;51.176;-0.708;2023-09-19T06:02:13;3;3;
55518;PMS5003;41724;51.176;-0.708;2023-09-19T06:04:40;1;1;
55518;PMS5003;41724;51.176;-0.708;2023-09-19T06:07:07;2;1;
55518;PMS5003;41724;51.176;-0.708;2023-09-19T06:09:34;1;1;
55518;PMS5003;41724;51.176;-0.708;2023-09-19T06:12:01;1;1;
55518;PMS5003;41724;51.176;-0.708;2023-09-19T06:14:28;4;3;
55518;PMS5003;41724;51.176;-0.708;2023-09-19T06:16:55;1;1;
55518;PMS5003;41724;51.176;-0.708;2023-09-19T06:19:22;4;4;
55518;PMS5003;41724;51.176;-0.708;2023-09-19T06:21:49;2;2;
55518;PMS5003;41724;51.176;-0.708;2023-09-19T06:24:16;3;2;
55518;PMS5003;41724;51.176;-0.708;2023-09-19T06:26:43;3;3;
55518;PMS5003;41724;51.176;-0.708;2023-09-19T06:29:10;2;1;
55518;PMS5003;41724;51.176;-0.708;2023-09-19T06:31:38;2;2;
55518;PMS5003;41724;51.176;-0.708;2023-09-19T06:34:06;2;1;
55518;PMS5003;41724;51.176;-0.708;2023-09-19T06:36:33;1;1;
55518;PMS5003;41724;51.176;-0.708;2023-09-19T06:39:00;1;1;
55518;PMS5003;41724;51.176;-0.708;2023-09-19T06:41:27;2;2;
55518;PMS5003;41724;51.176;-0.708;2023-09-19T06:43:54;3;3;
55518;PMS5003;41724;51.176;-0.708;2023-09-19T06:46:20;2;2;
55518;PMS5003;41724;51.176;-0.708;2023-09-19T06:48:48;3;3;
55518;PMS5003;41724;51.176;-0.708;2023-09-19T06:51:15;4;4;
55518;PMS5003;41724;51.176;-0.708;2023-09-19T06:53:41;1;1;
55518;PMS5003;41724;51.176;-0.708;2023-09-19T06:56:09;5;3;
55518;PMS5003;41724;51.176;-0.708;2023-09-19T06:58:36;4;4;
55518;PMS5003;41724;51.176;-0.708;2023-09-19T07:01:02;6;4;
55518;PMS5003;41724;51.176;-0.708;2023-09-19T07:03:29;3;2;
55518;PMS5003;41724;51.176;-0.708;2023-09-19T07:05:57;5;4;
55518;PMS5003;41724;51.176;-0.708;2023-09-19T07:08:23;4;3;
55518;PMS5003;41724;51.176;-0.708;2023-09-19T07:10:50;3;2;
55518;PMS5003;41724;51.176;-0.708;2023-09-19T07:13:17;6;4;
55518;PMS5003;41724;51.176;-0.708;2023-09-19T07:15:44;5;4;
55518;PMS5003;41724;51.176;-0.708;2023-09-19T07:18:11;7;6;
55518;PMS5003;41724;51.176;-0.708;2023-09-19T07:20:39;5;4;
55518;PMS5003;41724;51.176;-0.708;2023-09-19T07:23:06;4;4;
55518;PMS5003;41724;51.176;-0.708;2023-09-19T07:25:34;2;2;
55518;PMS5003;41724;51.176;-0.708;2023-09-19T07:28:02;6;3;
55518;PMS5003;41724;51.176;-0.708;2023-09-19T07:30:30;5;4;
55518;PMS5003;41724;51.176;-0.708;2023-09-19T07:32:57;4;4;
55518;PMS5003;41724;51.176;-0.708;2023-09-19T07:35:24;8;7;
55518;PMS5003;41724;51.176;-0.708;2023-09-19T07:37:51;7;5;
55518;PMS5003;41724;51.176;-0.708;2023-09-19T07:40:19;7;5;
55518;PMS5003;41724;51.176;-0.708;2023-09-19T07:42:46;7;7;
55518;PMS5003;41724;51.176;-0.708;2023-09-19T07:45:13;4;4;
55518;PMS5003;41724;51.176;-0.708;2023-09-19T07:47:43;8;5;
55518;PMS5003;41724;51.176;-0.708;2023-09-19T07:50:11;6;6;
55518;PMS5003;41724;51.176;-0.708;2023-09-19T07:52:38;6;6;
55518;PMS5003;41724;51.176;-0.708;2023-09-19T07:55:05;10;8;
55518;PMS5003;41724;51.176;-0.708;2023-09-19T07:57:33;6;6;
55518;PMS5003;41724;51.176;-0.708;2023-09-19T08:00:01;9;7;
55518;PMS5003;41724;51.176;-0.708;2023-09-19T08:02:28;12;12;
55518;PMS5003;41724;51.176;-0.708;2023-09-19T08:04:55;6;5;
55518;PMS5003;41724;51.176;-0.708;2023-09-19T08:07:22;9;7;
55518;PMS5003;41724;51.176;-0.708;2023-09-19T08:09:48;8;8;
55518;PMS5003;41724;51.176;-0.708;2023-09-19T08:12:15;8;7;
55518;PMS5003;41724;51.176;-0.708;2023-09-19T08:14:42;13;8;
55518;PMS5003;41724;51.176;-0.708;2023-09-19T08:17:09;7;5;
55518;PMS5003;41724;51.176;-0.708;2023-09-19T08:19:36;9;9;
55518;PMS5003;41724;51.176;-0.708;2023-09-19T08:22:03;11;10;
55518;PMS5003;41724;51.176;-0.708;2023-09-19T08:24:31;7;7;
55518;PMS5003;41724;51.176;-0.708;2023-09-19T08:26:58;7;6;
55518;PMS5003;41724;51.176;-0.708;2023-09-19T08:29:25;9;7;
55518;PMS5003;41724;51.176;-0.708;2023-09-19T08:31:52;8;8;
55518;PMS5003;41724;51.176;-0.708;2023-09-19T08:34:19;16;14;
55518;PMS5003;41724;51.176;-0.708;2023-09-19T08:36:46;6;5;
55518;PMS5003;41724;51.176;-0.708;2023-09-19T08:39:13;8;7;
55518;PMS5003;41724;51.176;-0.708;2023-09-19T08:41:40;10;10;
55518;PMS5003;41724;51.176;-0.708;2023-09-19T08:44:07;8;6;
55518;PMS5003;41724;51.176;-0.708;2023-09-19T08:46:34;10;6;
55518;PMS5003;41724;51.176;-0.708;2023-09-19T08:49:08;9;7;
55518;PMS5003;41724;51.176;-0.708;2023-09-19T08:51:42;9;7;
55518;PMS5003;41724;51.176;-0.708;2023-09-19T08:54:14;10;7;
55518;PMS5003;41724;51.176;-0.708;2023-09-19T08:56:47;7;6;
55518;PMS5003;41724;51.176;-0.708;2023-09-19T08:59:16;7;7;
55518;PMS5003;41724;51.176;-0.708;2023-09-19T09:01:47;6;6;
55518;PMS5003;41724;51.176;-0.708;2023-09-19T09:04:15;8;6;
55518;PMS5003;41724;51.176;-0.708;2023-09-19T09:06:42;9;6;
55518;PMS5003;41724;51.176;-0.708;2023-09-19T09:09:10;7;6;
55518;PMS5003;41724;51.176;-0.708;2023-09-19T09:11:37;11;9;
55518;PMS5003;41724;51.176;-0.708;2023-09-19T09:14:07;6;6;
55518;PMS5003;41724;51.176;-0.708;2023-09-19T09:16:34;10;9;
55518;PMS5003;41724;51.176;-0.708;2023-09-19T09:19:01;9;9;
55518;PMS5003;41724;51.176;-0.708;2023-09-19T09:21:28;6;6;
55518;PMS5003;41724;51.176;-0.708;2023-09-19T09:23:55;8;7;
55518;PMS5003;41724;51.176;-0.708;2023-09-19T09:26:40;8;7;
55518;PMS5003;41724;51.176;-0.708;2023-09-19T09:29:09;13;10;
55518;PMS5003;41724;51.176;-0.708;2023-09-19T09:31:36;8;8;
55518;PMS5003;41724;51.176;-0.708;2023-09-19T09:34:03;9;8;
55518;PMS5003;41724;51.176;-0.708;2023-09-19T09:36:34;8;6;
55518;PMS5003;41724;51.176;-0.708;2023-09-19T09:39:01;9;8;
55518;PMS5003;41724;51.176;-0.708;2023-09-19T09:41:35;9;8;
55518;PMS5003;41724;51.176;-0.708;2023-09-19T09:44:11;6;6;
55518;PMS5003;41724;51.176;-0.708;2023-09-19T09:46:41;8;8;
55518;PMS5003;41724;51.176;-0.708;2023-09-19T09:49:09;11;9;
55518;PMS5003;41724;51.176;-0.708;2023-09-19T09:51:37;8;7;
55518;PMS5003;41724;51.176;-0.708;2023-09-19T09:54:12;10;7;
55518;PMS5003;41724;51.176;-0.708;2023-09-19T09:56:56;13;8;
55518;PMS5003;41724;51.176;-0.708;2023-09-19T09:59:57;9;7;
55518;PMS5003;41724;51.176;-0.708;2023-09-19T10:02:25;7;7;
55518;PMS5003;41724;51.176;-0.708;2023-09-19T10:04:53;10;7;
55518;PMS5003;41724;51.176;-0.708;2023-09-19T10:07:25;8;7;
55518;PMS5003;41724;51.176;-0.708;2023-09-19T10:09:52;6;5;
55518;PMS5003;41724;51.176;-0.708;2023-09-19T10:12:19;8;7;
55518;PMS5003;41724;51.176;-0.708;2023-09-19T10:14:47;8;7;
55518;PMS5003;41724;51.176;-0.708;2023-09-19T10:17:14;6;6;
55518;PMS5003;41724;51.176;-0.708;2023-09-19T10:19:45;8;7;
55518;PMS5003;41724;51.176;-0.708;2023-09-19T10:22:20;8;6;
55518;PMS5003;41724;51.176;-0.708;2023-09-19T10:24:48;6;5;
55518;PMS5003;41724;51.176;-0.708;2023-09-19T10:27:16;8;5;
55518;PMS5003;41724;51.176;-0.708;2023-09-19T10:29:43;8;5;
55518;PMS5003;41724;51.176;-0.708;2023-09-19T10:32:12;9;9;
55518;PMS5003;41724;51.176;-0.708;2023-09-19T10:34:42;7;6;
55518;PMS5003;41724;51.176;-0.708;2023-09-19T10:37:10;5;5;
55518;PMS5003;41724;51.176;-0.708;2023-09-19T10:39:39;8;7;
55518;PMS5003;41724;51.176;-0.708;2023-09-19T10:42:07;9;7;
55518;PMS5003;41724;51.176;-0.708;2023-09-19T10:44:38;11;9;
55518;PMS5003;41724;51.176;-0.708;2023-09-19T10:47:09;8;8;
55518;PMS5003;41724;51.176;-0.708;2023-09-19T10:49:42;9;8;
55518;PMS5003;41724;51.176;-0.708;2023-09-19T10:52:10;8;7;
55518;PMS5003;41724;51.176;-0.708;2023-09-19T10:54:37;7;6;
55518;PMS5003;41724;51.176;-0.708;2023-09-19T10:57:12;6;5;
55518;PMS5003;41724;51.176;-0.708;2023-09-19T11:00:00;6;6;
55518;PMS5003;41724;51.176;-0.708;2023-09-19T11:02:28;9;7;
55518;PMS5003;41724;51.176;-0.708;2023-09-19T11:04:56;8;7;
55518;PMS5003;41724;51.176;-0.708;2023-09-19T11:07:56;11;8;
55518;PMS5003;41724;51.176;-0.708;2023-09-19T11:10:44;8;6;
55518;PMS5003;41724;51.176;-0.708;2023-09-19T11:13:27;7;7;
55518;PMS5003;41724;51.176;-0.708;2023-09-19T11:16:21;8;8;
55518;PMS5003;41724;51.176;-0.708;2023-09-19T11:18:51;7;7;
55518;PMS5003;41724;51.176;-0.708;2023-09-19T11:21:52;7;6;
55518;PMS5003;41724;51.176;-0.708;2023-09-19T11:24:27;8;7;
55518;PMS5003;41724;51.176;-0.708;2023-09-19T11:27:09;6;5;
55518;PMS5003;41724;51.176;-0.708;2023-09-19T11:29:38;10;9;
55518;PMS5003;41724;51.176;-0.708;2023-09-19T11:32:05;11;11;
55518;PMS5003;41724;51.176;-0.708;2023-09-19T11:34:40;7;7;
55518;PMS5003;41724;51.176;-0.708;2023-09-19T11:38:13;6;6;
55518;PMS5003;41724;51.176;-0.708;2023-09-19T11:40:44;6;5;
55518;PMS5003;41724;51.176;-0.708;2023-09-19T11:43:28;6;6;
55518;PMS5003;41724;51.176;-0.708;2023-09-19T11:46:04;11;8;
55518;PMS5003;41724;51.176;-0.708;2023-09-19T11:48:32;8;7;
55518;PMS5003;41724;51.176;-0.708;2023-09-19T11:51:01;6;5;
55518;PMS5003;41724;51.176;-0.708;2023-09-19T11:53:36;6;6;
55518;PMS5003;41724;51.176;-0.708;2023-09-19T11:56:05;5;5;
55518;PMS5003;41724;51.176;-0.708;2023-09-19T11:58:33;6;4;
55518;PMS5003;41724;51.176;-0.708;2023-09-19T12:01:01;7;5;
55518;PMS5003;41724;51.176;-0.708;2023-09-19T12:03:29;5;5;
55518;PMS5003;41724;51.176;-0.708;2023-09-19T12:05:58;9;6;
55518;PMS5003;41724;51.176;-0.708;2023-09-19T12:08:25;6;5;
55518;PMS5003;41724;51.176;-0.708;2023-09-19T12:10:52;6;5;
55518;PMS5003;41724;51.176;-0.708;2023-09-19T12:13:20;6;5;
55518;PMS5003;41724;51.176;-0.708;2023-09-19T12:15:47;8;6;
55518;PMS5003;41724;51.176;-0.708;2023-09-19T12:18:30;6;6;
55518;PMS5003;41724;51.176;-0.708;2023-09-19T12:20:57;5;5;
55518;PMS5003;41724;51.176;-0.708;2023-09-19T12:23:24;6;6;
55518;PMS5003;41724;51.176;-0.708;2023-09-19T12:25:51;9;9;
55518;PMS5003;41724;51.176;-0.708;2023-09-19T12:28:19;8;7;
55518;PMS5003;41724;51.176;-0.708;2023-09-19T12:30:46;5;5;
55518;PMS5003;41724;51.176;-0.708;2023-09-19T12:33:16;9;6;
55518;PMS5003;41724;51.176;-0.708;2023-09-19T12:35:43;7;6;
55518;PMS5003;41724;51.176;-0.708;2023-09-19T12:38:10;10;7;
55518;PMS5003;41724;51.176;-0.708;2023-09-19T12:40:37;7;7;
55518;PMS5003;41724;51.176;-0.708;2023-09-19T12:43:05;6;6;
55518;PMS5003;41724;51.176;-0.708;2023-09-19T12:45:33;9;7;
55518;PMS5003;41724;51.176;-0.708;2023-09-19T12:48:17;9;7;
55518;PMS5003;41724;51.176;-0.708;2023-09-19T12:51:01;9;8;
55518;PMS5003;41724;51.176;-0.708;2023-09-19T12:53:29;7;5;
55518;PMS5003;41724;51.176;-0.708;2023-09-19T12:55:58;8;8;
55518;PMS5003;41724;51.176;-0.708;2023-09-19T12:58:25;8;7;
55518;PMS5003;41724;51.176;-0.708;2023-09-19T13:00:54;7;7;
55518;PMS5003;41724;51.176;-0.708;2023-09-19T13:03:25;10;9;
55518;PMS5003;41724;51.176;-0.708;2023-09-19T13:05:54;8;8;
55518;PMS5003;41724;51.176;-0.708;2023-09-19T13:08:23;7;6;
55518;PMS5003;41724;51.176;-0.708;2023-09-19T13:11:08;7;7;
55518;PMS5003;41724;51.176;-0.708;2023-09-19T13:13:38;7;6;
55518;PMS5003;41724;51.176;-0.708;2023-09-19T13:16:07;8;7;
55518;PMS5003;41724;51.176;-0.708;2023-09-19T13:18:43;6;6;
55518;PMS5003;41724;51.176;-0.708;2023-09-19T13:21:12;11;10;
55518;PMS5003;41724;51.176;-0.708;2023-09-19T13:23:40;6;5;
55518;PMS5003;41724;51.176;-0.708;2023-09-19T13:26:07;6;6;
55518;PMS5003;41724;51.176;-0.708;2023-09-19T13:28:34;7;7;
55518;PMS5003;41724;51.176;-0.708;2023-09-19T13:31:01;9;8;
55518;PMS5003;41724;51.176;-0.708;2023-09-19T13:33:29;7;7;
55518;PMS5003;41724;51.176;-0.708;2023-09-19T13:35:57;8;7;
55518;PMS5003;41724;51.176;-0.708;2023-09-19T13:38:25;9;9;
55518;PMS5003;41724;51.176;-0.708;2023-09-19T13:40:51;10;9;
55518;PMS5003;41724;51.176;-0.708;2023-09-19T13:43:19;11;10;
55518;PMS5003;41724;51.176;-0.708;2023-09-19T13:45:46;9;8;
55518;PMS5003;41724;51.176;-0.708;2023-09-19T13:48:13;9;9;
55518;PMS5003;41724;51.176;-0.708;2023-09-19T13:50:40;9;8;
55518;PMS5003;41724;51.176;-0.708;2023-09-19T13:53:07;8;8;
55518;PMS5003;41724;51.176;-0.708;2023-09-19T13:55:34;7;7;
55518;PMS5003;41724;51.176;-0.708;2023-09-19T13:58:01;10;9;
55518;PMS5003;41724;51.176;-0.708;2023-09-19T14:00:29;7;6;
55518;PMS5003;41724;51.176;-0.708;2023-09-19T14:02:56;12;10;
55518;PMS5003;41724;51.176;-0.708;2023-09-19T14:05:23;7;6;
55518;PMS5003;41724;51.176;-0.708;2023-09-19T14:07:50;11;10;
55518;PMS5003;41724;51.176;-0.708;2023-09-19T14:10:17;19;17;
55518;PMS5003;41724;51.176;-0.708;2023-09-19T14:12:44;12;10;
55518;PMS5003;41724;51.176;-0.708;2023-09-19T14:15:12;7;7;
55518;PMS5003;41724;51.176;-0.708;2023-09-19T14:17:39;8;7;
55518;PMS5003;41724;51.176;-0.708;2023-09-19T14:20:07;8;8;
55518;PMS5003;41724;51.176;-0.708;2023-09-19T14:22:35;8;8;
55518;PMS5003;41724;51.176;-0.708;2023-09-19T14:25:02;10;10;
55518;PMS5003;41724;51.176;-0.708;2023-09-19T14:27:30;11;9;
55518;PMS5003;41724;51.176;-0.708;2023-09-19T14:29:57;7;6;
55518;PMS5003;41724;51.176;-0.708;2023-09-19T14:32:25;5;5;
55518;PMS5003;41724;51.176;-0.708;2023-09-19T14:34:52;6;6;
55518;PMS5003;41724;51.176;-0.708;2023-09-19T14:37:19;7;6;
55518;PMS5003;41724;51.176;-0.708;2023-09-19T14:39:46;5;5;
55518;PMS5003;41724;51.176;-0.708;2023-09-19T14:42:13;7;5;
55518;PMS5003;41724;51.176;-0.708;2023-09-19T14:44:39;6;6;
55518;PMS5003;41724;51.176;-0.708;2023-09-19T14:47:06;8;8;
55518;PMS5003;41724;51.176;-0.708;2023-09-19T14:49:33;8;8;
55518;PMS5003;41724;51.176;-0.708;2023-09-19T14:52:00;6;5;
55518;PMS5003;41724;51.176;-0.708;2023-09-19T14:54:27;7;6;
55518;PMS5003;41724;51.176;-0.708;2023-09-19T14:56:54;7;7;
55518;PMS5003;41724;51.176;-0.708;2023-09-19T14:59:21;6;5;
55518;PMS5003;41724;51.176;-0.708;2023-09-19T15:01:48;5;4;
55518;PMS5003;41724;51.176;-0.708;2023-09-19T15:04:15;7;5;
55518;PMS5003;41724;51.176;-0.708;2023-09-19T15:06:42;6;5;
55518;PMS5003;41724;51.176;-0.708;2023-09-19T15:09:09;6;5;
55518;PMS5003;41724;51.176;-0.708;2023-09-19T15:11:36;5;5;
55518;PMS5003;41724;51.176;-0.708;2023-09-19T15:14:03;4;4;
55518;PMS5003;41724;51.176;-0.708;2023-09-19T15:16:30;5;4;
55518;PMS5003;41724;51.176;-0.708;2023-09-19T15:18:57;4;4;
55518;PMS5003;41724;51.176;-0.708;2023-09-19T15:21:24;7;7;
55518;PMS5003;41724;51.176;-0.708;2023-09-19T15:23:51;7;6;
55518;PMS5003;41724;51.176;-0.708;2023-09-19T15:26:18;7;7;
55518;PMS5003;41724;51.176;-0.708;2023-09-19T15:28:45;10;8;
55518;PMS5003;41724;51.176;-0.708;2023-09-19T15:31:12;8;7;
55518;PMS5003;41724;51.176;-0.708;2023-09-19T15:33:39;4;4;
55518;PMS5003;41724;51.176;-0.708;2023-09-19T15:36:07;5;4;
55518;PMS5003;41724;51.176;-0.708;2023-09-19T15:38:55;7;7;
55518;PMS5003;41724;51.176;-0.708;2023-09-19T15:41:27;6;5;
55518;PMS5003;41724;51.176;-0.708;2023-09-19T15:43:56;5;4;
55518;PMS5003;41724;51.176;-0.708;2023-09-19T15:46:24;9;7;
55518;PMS5003;41724;51.176;-0.708;2023-09-19T15:48:51;6;5;
55518;PMS5003;41724;51.176;-0.708;2023-09-19T15:51:20;5;4;
55518;PMS5003;41724;51.176;-0.708;2023-09-19T15:53:49;15;13;
55518;PMS5003;41724;51.176;-0.708;2023-09-19T15:56:20;11;9;
55518;PMS5003;41724;51.176;-0.708;2023-09-19T15:58:48;12;10;
55518;PMS5003;41724;51.176;-0.708;2023-09-19T16:01:17;7;6;
55518;PMS5003;41724;51.176;-0.708;2023-09-19T16:03:45;9;7;
55518;PMS5003;41724;51.176;-0.708;2023-09-19T16:06:15;7;6;
55518;PMS5003;41724;51.176;-0.708;2023-09-19T16:08:44;13;9;
55518;PMS5003;41724;51.176;-0.708;2023-09-19T16:11:12;7;6;
55518;PMS5003;41724;51.176;-0.708;2023-09-19T16:13:40;7;6;
55518;PMS5003;41724;51.176;-0.708;2023-09-19T16:16:08;11;7;
55518;PMS5003;41724;51.176;-0.708;2023-09-19T16:18:36;7;6;
55518;PMS5003;41724;51.176;-0.708;2023-09-19T16:21:04;10;8;
55518;PMS5003;41724;51.176;-0.708;2023-09-19T16:23:32;7;7;
55518;PMS5003;41724;51.176;-0.708;2023-09-19T16:26:00;7;6;
55518;PMS5003;41724;51.176;-0.708;2023-09-19T16:28:28;10;6;
55518;PMS5003;41724;51.176;-0.708;2023-09-19T16:30:57;8;6;
55518;PMS5003;41724;51.176;-0.708;2023-09-19T16:33:24;6;6;
55518;PMS5003;41724;51.176;-0.708;2023-09-19T16:35:50;9;8;
55518;PMS5003;41724;51.176;-0.708;2023-09-19T16:38:17;7;5;
55518;PMS5003;41724;51.176;-0.708;2023-09-19T16:40:50;8;7;
55518;PMS5003;41724;51.176;-0.708;2023-09-19T16:43:18;5;5;